createdAt,value
2024-03-01T00:00:02.582Z,20.80
2024-03-01T00:02:34.948Z,22.30
2024-03-01T00:05:02.912Z,27.00
2024-03-01T00:07:31.238Z,26.70
2024-03-01T00:09:59.125Z,22.50
2024-03-01T00:12:26.934Z,23.90
2024-03-01T00:14:54.765Z,24.30
2024-03-01T00:17:22.646Z,23.30
2024-03-01T00:19:50.721Z,24.20
2024-03-01T00:22:19.495Z,23.30
2024-03-01T00:24:47.810Z,23.60
2024-03-01T00:27:15.528Z,25.00
2024-03-01T00:29:43.535Z,23.10
2024-03-01T00:32:11.215Z,24.90
2024-03-01T00:34:38.984Z,24.80
2024-03-01T00:37:06.792Z,25.20
2024-03-01T00:39:34.687Z,22.90
2024-03-01T00:42:02.505Z,24.50
2024-03-01T00:44:30.281Z,24.70
2024-03-01T00:46:58.047Z,23.60
2024-03-01T00:49:26.355Z,26.10
2024-03-01T00:51:54.092Z,24.40
2024-03-01T00:54:21.878Z,23.60
2024-03-01T00:56:50.121Z,27.70
2024-03-01T00:59:22.241Z,24.00
2024-03-01T01:01:50.775Z,27.60
2024-03-01T01:04:18.764Z,25.90
2024-03-01T01:06:46.611Z,25.90
2024-03-01T01:09:14.323Z,27.00
2024-03-01T01:11:42.033Z,27.30
2024-03-01T01:14:09.783Z,26.40
2024-03-01T01:16:37.765Z,23.80
2024-03-01T01:19:05.551Z,25.70
2024-03-01T01:21:34.232Z,26.20
2024-03-01T01:24:02.227Z,26.90
2024-03-01T01:26:30.189Z,25.90
2024-03-01T01:28:57.938Z,26.00
2024-03-01T01:31:25.877Z,26.60
2024-03-01T01:33:53.837Z,27.30
2024-03-01T01:36:21.752Z,23.70
2024-03-01T01:38:49.597Z,26.60
2024-03-01T01:41:17.461Z,26.90
2024-03-01T01:43:45.247Z,26.10
2024-03-01T01:46:15.593Z,26.40
2024-03-01T01:48:44.858Z,26.40
2024-03-01T01:51:16.232Z,27.70
2024-03-01T01:53:44.802Z,27.10
2024-03-01T01:56:16.027Z,24.50
2024-03-01T01:58:45.843Z,21.70
2024-03-01T02:01:13.929Z,24.10
2024-03-01T02:03:42.225Z,25.00
2024-03-01T02:06:11.221Z,28.00
2024-03-01T02:08:39.689Z,27.40
2024-03-01T02:11:07.724Z,28.90
2024-03-01T02:13:35.511Z,25.60
2024-03-01T02:16:03.360Z,23.50
2024-03-01T02:18:34.447Z,27.40
2024-03-01T02:21:02.561Z,25.60
2024-03-01T02:23:30.767Z,20.10
2024-03-01T02:25:58.719Z,22.40
2024-03-01T02:28:26.825Z,28.60
2024-03-01T02:30:54.713Z,26.60
2024-03-01T02:33:22.557Z,27.90
2024-03-01T02:35:50.907Z,24.60
2024-03-01T02:38:18.636Z,27.20
2024-03-01T02:40:46.369Z,25.10
2024-03-01T02:43:14.222Z,28.10
2024-03-01T02:45:42.093Z,27.20
2024-03-01T02:48:10.079Z,26.20
2024-03-01T02:50:37.867Z,28.10
2024-03-01T02:53:06.151Z,21.40
2024-03-01T02:55:34.103Z,24.70
2024-03-01T02:58:02.611Z,28.20
2024-03-01T03:00:30.464Z,25.60
2024-03-01T03:02:58.162Z,26.20
2024-03-01T03:05:26.087Z,22.80
2024-03-01T03:07:53.970Z,24.80
2024-03-01T03:10:22.222Z,24.40
2024-03-01T03:12:50.470Z,25.40
2024-03-01T03:15:18.636Z,20.90
2024-03-01T03:17:46.598Z,21.10
2024-03-01T03:20:16.648Z,24.40
2024-03-01T03:22:48.610Z,26.70
2024-03-01T03:25:16.861Z,26.70
2024-03-01T03:27:44.968Z,25.60
2024-03-01T03:30:13.539Z,26.40
2024-03-01T03:32:42.028Z,26.10
2024-03-01T03:35:09.804Z,28.40
2024-03-01T03:37:37.641Z,21.90
2024-03-01T03:40:15.836Z,26.60
2024-03-01T03:42:44.980Z,27.90
2024-03-01T03:45:12.942Z,28.10
2024-03-01T03:47:40.726Z,29.00
2024-03-01T03:50:09.551Z,24.50
2024-03-01T03:52:38.075Z,25.90
2024-03-01T03:55:07.353Z,28.60
2024-03-01T03:57:36.249Z,20.40
2024-03-01T04:00:11.041Z,23.00
2024-03-01T04:02:39.271Z,32.00
2024-03-01T04:05:08.430Z,28.20
2024-03-01T04:10:07.947Z,25.60
2024-03-01T04:12:37.638Z,28.00
2024-03-01T04:15:06.369Z,26.50
2024-03-01T04:17:35.506Z,28.00
2024-03-01T04:20:05.805Z,24.10
2024-03-01T04:22:33.565Z,22.10
2024-03-01T04:25:01.778Z,28.70
2024-03-01T04:27:31.891Z,28.60
2024-03-01T04:29:59.946Z,28.10
2024-03-01T04:32:29.361Z,23.20
2024-03-01T04:34:57.286Z,24.60
2024-03-01T04:37:25.065Z,26.20
2024-03-01T04:39:52.957Z,27.50
2024-03-01T04:42:20.662Z,25.30
2024-03-01T04:44:48.658Z,27.50
2024-03-01T04:47:16.389Z,28.00
2024-03-01T04:49:45.140Z,25.60
2024-03-01T04:52:13.024Z,18.50
2024-03-01T04:54:40.844Z,26.10
2024-03-01T04:57:09.238Z,25.80
2024-03-01T04:59:40.279Z,21.70
2024-03-01T05:02:08.559Z,18.10
2024-03-01T05:04:38.202Z,25.70
2024-03-01T05:07:07.255Z,25.00
2024-03-01T05:09:34.956Z,22.80
2024-03-01T05:12:02.678Z,24.60
2024-03-01T05:14:30.396Z,23.50
2024-03-01T05:16:58.045Z,24.00
2024-03-01T05:19:26.716Z,20.90
2024-03-01T05:21:54.642Z,22.20
2024-03-01T05:24:22.378Z,23.70
2024-03-01T05:26:50.176Z,21.90
2024-03-01T05:29:21.200Z,22.40
2024-03-01T05:31:49.227Z,21.90
2024-03-01T05:34:17.158Z,21.30
2024-03-01T05:36:45.014Z,22.20
2024-03-01T05:39:21.646Z,20.50
2024-03-01T05:41:49.533Z,22.20
2024-03-01T05:44:18.217Z,16.90
2024-03-01T05:46:46.109Z,19.40
2024-03-01T05:49:13.869Z,23.80
2024-03-01T05:51:41.953Z,22.00
2024-03-01T05:54:11.556Z,17.90
2024-03-01T05:56:39.425Z,23.10
2024-03-01T05:59:07.265Z,22.80
2024-03-01T06:01:35.974Z,16.80
2024-03-01T06:04:11.590Z,20.30
2024-03-01T06:09:07.440Z,19.10
2024-03-01T06:11:35.224Z,19.30
2024-03-01T06:14:03.179Z,17.80
2024-03-01T06:16:31.123Z,20.70
2024-03-01T06:19:01.740Z,22.80
2024-03-01T06:21:30.255Z,20.80
2024-03-01T06:23:58.402Z,19.50
2024-03-01T06:26:26.135Z,19.20
2024-03-01T06:28:53.908Z,20.60
2024-03-01T06:31:21.678Z,15.30
2024-03-01T06:33:49.497Z,15.70
2024-03-01T06:36:17.221Z,19.20
2024-03-01T06:38:44.964Z,15.70
2024-03-01T06:41:13.237Z,15.10
2024-03-01T06:43:41.059Z,19.50
2024-03-01T06:46:09.104Z,19.30
2024-03-01T06:48:37.136Z,22.70
2024-03-01T06:51:05.256Z,20.20
2024-03-01T06:53:33.005Z,18.40
2024-03-01T06:56:04.132Z,20.70
2024-03-01T06:58:32.203Z,21.60
2024-03-01T07:01:00.187Z,18.80
2024-03-01T07:03:28.072Z,20.20
2024-03-01T07:05:55.914Z,16.20
2024-03-01T07:08:23.644Z,20.60
2024-03-01T07:10:53.877Z,17.90
2024-03-01T07:13:22.545Z,21.90
2024-03-01T07:15:50.468Z,18.10
2024-03-01T07:18:18.234Z,20.10
2024-03-01T07:20:48.750Z,18.60
2024-03-01T07:23:17.321Z,18.60
2024-03-01T07:25:45.101Z,18.20
2024-03-01T07:28:13.020Z,17.00
2024-03-01T07:30:41.318Z,18.90
2024-03-01T07:33:09.151Z,19.30
2024-03-01T07:35:38.808Z,16.70
2024-03-01T07:40:34.328Z,16.30
2024-03-01T07:43:02.172Z,17.70
2024-03-01T07:45:30.162Z,17.50
2024-03-01T07:47:57.876Z,17.60
2024-03-01T07:50:25.787Z,17.20
2024-03-01T07:52:53.594Z,16.40
2024-03-01T07:55:21.882Z,16.60
2024-03-01T07:57:49.883Z,18.80
2024-03-01T08:00:18.200Z,16.40
2024-03-01T08:02:45.997Z,18.80
2024-03-01T08:05:13.683Z,18.10
2024-03-01T08:07:41.362Z,15.80
2024-03-01T08:10:16.289Z,17.50
2024-03-01T08:12:44.242Z,18.60
2024-03-01T08:15:26.200Z,17.80
2024-03-01T08:17:53.986Z,16.60
2024-03-01T08:20:50.887Z,17.20
2024-03-01T08:23:18.577Z,13.90
2024-03-01T08:25:46.548Z,16.30
2024-03-01T08:28:21.466Z,14.20
2024-03-01T08:30:49.423Z,16.20
2024-03-01T08:33:19.639Z,15.20
2024-03-01T08:35:48.434Z,15.00
2024-03-01T08:38:41.998Z,14.70
2024-03-01T08:41:11.647Z,14.40
2024-03-01T08:43:42.712Z,15.30
2024-03-01T08:46:36.929Z,16.40
2024-03-01T08:49:33.692Z,13.70
2024-03-01T08:52:01.399Z,15.00
2024-03-01T08:54:29.357Z,14.90
2024-03-01T08:57:05.692Z,13.40
2024-03-01T08:59:44.272Z,15.70
2024-03-01T09:02:27.472Z,14.50
2024-03-01T09:04:55.313Z,14.90
2024-03-01T09:07:28.803Z,12.30
2024-03-01T09:09:57.076Z,15.70
2024-03-01T09:12:27.619Z,15.50
2024-03-01T09:15:05.306Z,15.00
2024-03-01T09:17:33.198Z,15.30
2024-03-01T09:20:01.521Z,16.30
2024-03-01T09:22:30.442Z,16.80
2024-03-01T09:24:58.393Z,16.40
2024-03-01T09:27:34.045Z,14.60
2024-03-01T09:30:16.367Z,15.40
2024-03-01T09:32:44.254Z,14.30
2024-03-01T09:35:12.023Z,14.00
2024-03-01T09:37:39.732Z,12.40
2024-03-01T09:40:33.936Z,14.70
2024-03-01T09:43:11.399Z,15.20
2024-03-01T09:46:03.770Z,13.80
2024-03-01T09:48:49.621Z,13.30
2024-03-01T09:51:23.894Z,14.00
2024-03-01T09:54:11.837Z,15.40
2024-03-01T09:57:19.940Z,14.90
2024-03-01T09:59:55.608Z,13.70
2024-03-01T10:05:39.181Z,14.20
2024-03-01T10:08:42.236Z,16.60
2024-03-01T10:11:32.746Z,13.10
2024-03-01T10:14:27.777Z,14.20
2024-03-01T10:17:03.710Z,14.50
2024-03-01T10:19:53.872Z,12.00
2024-03-01T10:22:34.088Z,13.20
2024-03-01T10:25:26.665Z,13.40
2024-03-01T10:28:05.040Z,14.20
2024-03-01T10:30:41.193Z,14.80
2024-03-01T10:33:27.507Z,15.00
2024-03-01T10:35:55.549Z,13.30
2024-03-01T10:38:38.422Z,13.60
2024-03-01T10:41:31.090Z,11.50
2024-03-01T10:44:41.681Z,14.20
2024-03-01T10:47:21.564Z,12.70
2024-03-01T10:50:08.140Z,14.90
2024-03-01T10:52:45.801Z,12.60
2024-03-01T10:55:25.668Z,11.50
2024-03-01T10:58:02.985Z,11.50
2024-03-01T11:00:36.309Z,13.80
2024-03-01T11:03:28.208Z,12.50
2024-03-01T11:06:10.471Z,12.30
2024-03-01T11:08:52.967Z,10.90
2024-03-01T11:11:23.662Z,13.50
2024-03-01T11:13:56.336Z,12.20
2024-03-01T11:16:29.104Z,11.50
2024-03-01T11:19:01.608Z,11.70
2024-03-01T11:21:32.895Z,13.50
2024-03-01T11:24:06.367Z,12.70
2024-03-01T11:26:44.349Z,12.90
2024-03-01T11:29:37.592Z,12.10
2024-03-01T11:32:20.690Z,11.90
2024-03-01T11:35:08.394Z,12.20
2024-03-01T11:38:14.969Z,10.90
2024-03-01T11:41:32.030Z,11.00
2024-03-01T11:44:05.576Z,11.20
2024-03-01T11:46:52.952Z,12.90
2024-03-01T11:49:44.331Z,12.70
2024-03-01T11:52:27.766Z,10.40
2024-03-01T11:55:14.434Z,11.60
2024-03-01T11:58:10.266Z,12.80
2024-03-01T12:00:53.917Z,11.10
2024-03-01T12:03:39.200Z,13.80
2024-03-01T12:06:52.470Z,11.90
2024-03-01T12:09:48.093Z,12.00
2024-03-01T12:12:28.430Z,9.80
2024-03-01T12:14:59.859Z,12.00
2024-03-01T12:17:50.712Z,10.20
2024-03-01T12:20:18.469Z,12.80
2024-03-01T12:23:32.614Z,11.50
2024-03-01T12:26:01.274Z,13.40
2024-03-01T12:28:38.065Z,11.10
2024-03-01T12:31:26.528Z,11.00
2024-03-01T12:34:16.230Z,12.00
2024-03-01T12:37:13.806Z,11.50
2024-03-01T12:39:45.988Z,10.40
2024-03-01T12:42:27.090Z,10.10
2024-03-01T12:45:35.397Z,11.80
2024-03-01T12:48:25.714Z,10.50
2024-03-01T12:51:02.409Z,12.40
2024-03-01T12:53:52.285Z,11.10
2024-03-01T12:56:38.944Z,11.40
2024-03-01T12:59:32.438Z,11.60
2024-03-01T13:02:09.435Z,11.90
2024-03-01T13:04:53.168Z,10.70
2024-03-01T13:07:23.505Z,11.50
2024-03-01T13:09:54.549Z,11.60
2024-03-01T13:12:26.572Z,11.30
2024-03-01T13:15:01.514Z,9.90
2024-03-01T13:17:42.310Z,12.20
2024-03-01T13:20:26.907Z,9.40
2024-03-01T13:23:17.336Z,11.40
2024-03-01T13:25:56.685Z,12.40
2024-03-01T13:28:28.373Z,10.00
2024-03-01T13:31:06.363Z,11.30
2024-03-01T13:33:37.377Z,11.60
2024-03-01T13:36:12.312Z,12.10
2024-03-01T13:39:11.880Z,11.60
2024-03-01T13:41:45.592Z,10.50
2024-03-01T13:44:39.711Z,10.50
2024-03-01T13:49:59.465Z,11.90
2024-03-01T13:52:32.864Z,11.60
2024-03-01T13:55:00.853Z,9.30
2024-03-01T13:57:28.696Z,9.60
2024-03-01T13:59:56.999Z,11.60
2024-03-01T14:02:27.258Z,10.00
2024-03-01T14:05:02.142Z,13.10
2024-03-01T14:07:29.971Z,11.80
2024-03-01T14:10:00.456Z,11.50
2024-03-01T14:12:28.368Z,11.80
2024-03-01T14:14:56.136Z,9.60
2024-03-01T14:17:24.408Z,12.50
2024-03-01T14:19:53.685Z,12.80
2024-03-01T14:22:21.945Z,12.50
2024-03-01T14:24:49.730Z,11.70
2024-03-01T14:27:17.530Z,12.00
2024-03-01T14:29:45.819Z,12.30
2024-03-01T14:32:15.295Z,11.60
2024-03-01T14:37:11.521Z,13.60
2024-03-01T14:39:41.543Z,22.20
2024-03-01T14:42:24.742Z,14.40
2024-03-01T14:44:54.171Z,14.30
2024-03-01T14:49:56.590Z,10.90
2024-03-01T14:52:24.442Z,16.30
2024-03-01T14:54:52.225Z,15.90
2024-03-01T14:57:19.989Z,18.00
2024-03-01T14:59:47.748Z,16.70
2024-03-01T15:02:17.367Z,17.90
2024-03-01T15:04:45.292Z,19.40
2024-03-01T15:07:12.979Z,19.60
2024-03-01T15:09:45.555Z,21.20
2024-03-01T15:12:14.167Z,19.80
2024-03-01T15:14:41.878Z,23.30
2024-03-01T15:17:09.961Z,20.00
2024-03-01T15:19:39.487Z,18.30
2024-03-01T15:22:10.812Z,20.20
2024-03-01T15:24:38.714Z,18.30
2024-03-01T15:27:07.390Z,20.60
2024-03-01T15:29:35.636Z,20.90
2024-03-01T15:32:03.456Z,25.70
2024-03-01T15:34:31.238Z,31.90
2024-03-01T15:36:59.176Z,24.40
2024-03-01T15:39:27.530Z,29.70
2024-03-01T15:41:55.363Z,21.80
2024-03-01T15:44:26.003Z,24.60
2024-03-01T15:46:53.947Z,20.30
2024-03-01T15:49:21.844Z,24.10
2024-03-01T15:51:49.886Z,22.60
2024-03-01T15:54:18.843Z,22.10
2024-03-01T15:56:46.618Z,23.10
2024-03-01T15:59:14.566Z,26.10
2024-03-01T16:01:42.372Z,26.40
2024-03-01T16:04:10.270Z,25.70
2024-03-01T16:06:39.277Z,27.60
2024-03-01T16:09:09.907Z,26.30
2024-03-01T16:11:41.893Z,22.70
2024-03-01T16:14:13.122Z,25.80
2024-03-01T16:16:41.151Z,26.00
2024-03-01T16:19:09.095Z,26.70
2024-03-01T16:21:36.957Z,23.00
2024-03-01T16:24:07.081Z,22.80
2024-03-01T16:26:34.925Z,24.80
2024-03-01T16:29:02.796Z,23.10
2024-03-01T16:31:30.781Z,22.20
2024-03-01T16:33:58.980Z,21.50
2024-03-01T16:36:27.039Z,23.20
2024-03-01T16:38:55.073Z,21.30
2024-03-01T16:41:32.679Z,23.10
2024-03-01T16:44:04.694Z,21.80
2024-03-01T16:46:46.449Z,25.80
2024-03-01T16:49:40.934Z,26.20
2024-03-01T16:52:14.850Z,23.70
2024-03-01T16:54:47.058Z,25.20
2024-03-01T16:57:31.272Z,25.10
2024-03-01T17:00:00.305Z,23.50
2024-03-01T17:02:38.050Z,25.80
2024-03-01T17:05:33.019Z,20.60
2024-03-01T17:08:00.775Z,22.50
2024-03-01T17:10:35.243Z,25.80
2024-03-01T17:13:05.106Z,21.80
2024-03-01T17:15:33.170Z,21.20
2024-03-01T17:18:01.970Z,25.90
2024-03-01T17:20:30.698Z,19.30
2024-03-01T17:22:58.586Z,24.00
2024-03-01T17:25:26.476Z,20.60
2024-03-01T17:27:54.232Z,21.70
2024-03-01T17:30:22.055Z,23.70
2024-03-01T17:32:50.353Z,19.20
2024-03-01T17:35:22.291Z,20.00
2024-03-01T17:37:50.388Z,19.70
2024-03-01T17:40:19.467Z,20.70
2024-03-01T17:42:47.989Z,21.20
2024-03-01T17:45:16.248Z,20.00
2024-03-01T17:47:44.415Z,21.60
2024-03-01T17:50:14.289Z,23.60
2024-03-01T17:52:42.254Z,25.50
2024-03-01T17:55:10.453Z,26.20
2024-03-01T17:57:40.174Z,22.50
2024-03-01T18:00:09.011Z,22.10
2024-03-01T18:02:36.753Z,23.30
2024-03-01T18:05:06.344Z,23.60
2024-03-01T18:07:34.236Z,22.80
2024-03-01T18:10:02.697Z,25.30
2024-03-01T18:12:30.529Z,27.10
2024-03-01T18:14:59.151Z,24.30
2024-03-01T18:17:27.300Z,24.10
2024-03-01T18:19:55.634Z,25.50
2024-03-01T18:22:23.597Z,20.80
2024-03-01T18:24:51.352Z,24.00
2024-03-01T18:27:19.492Z,25.90
2024-03-01T18:29:49.971Z,21.40
2024-03-01T18:32:18.125Z,23.50
2024-03-01T18:34:46.731Z,23.60
2024-03-01T18:37:14.599Z,22.50
2024-03-01T18:39:42.578Z,24.30
2024-03-01T18:42:10.415Z,21.30
2024-03-01T18:44:38.555Z,22.50
2024-03-01T18:47:06.532Z,19.00
2024-03-01T18:49:41.482Z,21.60
2024-03-01T18:52:10.552Z,20.50
2024-03-01T18:54:38.444Z,26.40
2024-03-01T18:57:07.542Z,19.40
2024-03-01T18:59:35.523Z,21.90
2024-03-01T19:02:05.870Z,19.70
2024-03-01T19:04:34.724Z,21.90
2024-03-01T19:07:02.675Z,21.70
2024-03-01T19:09:30.468Z,22.40
2024-03-01T19:11:58.221Z,24.30
2024-03-01T19:14:25.969Z,27.50
2024-03-01T19:16:53.762Z,30.90
2024-03-01T19:19:21.585Z,28.10
2024-03-01T19:21:49.638Z,24.40
2024-03-01T19:24:19.219Z,24.50
2024-03-01T19:26:46.967Z,24.10
2024-03-01T19:29:17.571Z,23.30
2024-03-01T19:31:45.500Z,24.00
2024-03-01T19:34:13.546Z,23.90
2024-03-01T19:36:41.758Z,22.40
2024-03-01T19:39:11.653Z,22.90
2024-03-01T19:41:39.695Z,25.40
2024-03-01T19:44:07.652Z,25.80
2024-03-01T19:46:35.528Z,21.10
2024-03-01T19:49:03.401Z,24.80
2024-03-01T19:51:31.874Z,23.40
2024-03-01T19:53:59.608Z,22.00
2024-03-01T19:56:27.346Z,24.70
2024-03-01T19:58:55.112Z,22.80
2024-03-01T20:01:23.062Z,16.80
2024-03-01T20:03:51.587Z,22.40
2024-03-01T20:06:24.502Z,20.40
2024-03-01T20:08:52.648Z,16.80
2024-03-01T20:11:20.443Z,20.30
2024-03-01T20:13:48.683Z,20.80
2024-03-01T20:16:16.466Z,18.20
2024-03-01T20:18:44.276Z,18.00
2024-03-01T20:21:12.194Z,16.70
2024-03-01T20:23:45.893Z,17.70
2024-03-01T20:26:18.020Z,15.30
2024-03-01T20:28:45.876Z,33.60
2024-03-01T20:31:13.699Z,23.70
2024-03-01T20:33:41.510Z,34.60
2024-03-01T20:36:09.308Z,20.20
2024-03-01T20:38:39.695Z,15.30
2024-03-01T20:41:07.422Z,14.10
2024-03-01T20:43:35.409Z,13.60
2024-03-01T20:46:03.387Z,16.10
2024-03-01T20:48:33.159Z,14.00
2024-03-01T20:51:00.869Z,12.60
2024-03-01T20:53:28.702Z,12.50
2024-03-01T20:55:56.547Z,12.20
2024-03-01T20:58:24.363Z,15.30
2024-03-01T21:00:52.187Z,13.20
2024-03-01T21:03:19.950Z,14.00
2024-03-01T21:05:47.733Z,15.10
2024-03-01T21:08:15.777Z,11.30
2024-03-01T21:10:43.627Z,15.70
2024-03-01T21:13:11.484Z,13.80
2024-03-01T21:15:39.179Z,13.50
2024-03-01T21:18:07.262Z,13.10
2024-03-01T21:20:35.021Z,10.80
2024-03-01T21:23:02.902Z,13.80
2024-03-01T21:25:30.664Z,12.70
2024-03-01T21:27:59.206Z,14.40
2024-03-01T21:30:29.890Z,13.80
2024-03-01T21:33:00.525Z,12.30
2024-03-01T21:35:29.145Z,13.90
2024-03-01T21:37:56.899Z,13.00
2024-03-01T21:40:27.956Z,14.40
2024-03-01T21:42:55.746Z,15.30
2024-03-01T21:45:23.772Z,15.70
2024-03-01T21:47:51.574Z,13.60
2024-03-01T21:50:19.367Z,14.30
2024-03-01T21:52:47.407Z,14.70
2024-03-01T21:55:15.448Z,14.30
2024-03-01T21:57:43.336Z,15.50
2024-03-01T22:00:11.784Z,14.00
2024-03-01T22:02:39.646Z,15.00
2024-03-01T22:05:07.559Z,11.30
2024-03-01T22:07:35.899Z,14.30
2024-03-01T22:10:03.757Z,12.60
2024-03-01T22:12:31.548Z,12.50
2024-03-01T22:14:59.387Z,14.40
2024-03-01T22:17:27.394Z,12.80
2024-03-01T22:19:55.454Z,13.40
2024-03-01T22:22:23.164Z,13.90
2024-03-01T22:24:51.053Z,14.40
2024-03-01T22:27:19.184Z,13.80
2024-03-01T22:29:50.711Z,13.80
2024-03-01T22:32:19.001Z,13.80
2024-03-01T22:34:47.138Z,14.80
2024-03-01T22:37:17.759Z,14.40
2024-03-01T22:39:48.964Z,14.00
2024-03-01T22:42:19.499Z,15.20
2024-03-01T22:44:47.414Z,14.00
2024-03-01T22:47:16.141Z,14.10
2024-03-01T22:49:46.915Z,15.60
2024-03-01T22:52:26.657Z,13.50
2024-03-01T22:54:55.464Z,14.60
2024-03-01T22:57:33.291Z,15.00
2024-03-01T23:00:23.096Z,14.40
2024-03-01T23:03:19.041Z,13.90
2024-03-01T23:05:50.772Z,15.40
2024-03-01T23:08:26.107Z,15.30
2024-03-01T23:10:55.634Z,15.50
2024-03-01T23:13:23.462Z,14.20
2024-03-01T23:15:52.068Z,17.00
2024-03-01T23:18:22.156Z,15.80
2024-03-01T23:20:50.412Z,18.50
2024-03-01T23:23:19.111Z,16.50
2024-03-01T23:25:48.397Z,19.50
2024-03-01T23:28:16.295Z,15.20
2024-03-01T23:30:44.277Z,19.90
2024-03-01T23:33:12.275Z,18.10
2024-03-01T23:35:41.166Z,13.30
2024-03-01T23:38:09.069Z,16.10
2024-03-01T23:40:37.719Z,17.50
2024-03-01T23:43:05.486Z,18.00
2024-03-01T23:45:33.324Z,16.80
2024-03-01T23:48:01.119Z,15.80
2024-03-01T23:50:28.893Z,15.20
2024-03-01T23:52:56.615Z,19.00
2024-03-01T23:55:25.576Z,17.10
2024-03-01T23:57:55.919Z,16.40
